createdAt,value
2022-09-16T00:00:30.300Z,22.50
2022-09-16T00:02:58.284Z,22.40
2022-09-16T00:05:27.738Z,22.30
2022-09-16T00:08:01.649Z,22.20
2022-09-16T00:10:28.829Z,22.20
2022-09-16T00:12:58.414Z,22.10
2022-09-16T00:15:28.817Z,22.10
2022-09-16T00:17:56.177Z,22.10
2022-09-16T00:20:23.757Z,22.20
2022-09-16T00:22:53.310Z,22.30
2022-09-16T00:25:20.557Z,22.30
2022-09-16T00:27:50.272Z,22.30
2022-09-16T00:30:17.672Z,22.30
2022-09-16T00:32:48.343Z,22.30
2022-09-16T00:35:19.435Z,22.40
2022-09-16T00:37:49.097Z,22.40
2022-09-16T00:40:17.921Z,22.30
2022-09-16T00:43:07.018Z,22.30
2022-09-16T00:45:37.541Z,22.30
2022-09-16T00:48:23.604Z,22.30
2022-09-16T00:50:54.280Z,22.30
2022-09-16T00:53:23.604Z,22.30
2022-09-16T00:55:51.789Z,22.30
2022-09-16T00:58:31.893Z,22.30
2022-09-16T01:00:59.212Z,22.30
2022-09-16T01:03:29.082Z,22.30
2022-09-16T01:06:01.235Z,22.30
2022-09-16T01:08:31.707Z,22.30
2022-09-16T01:10:58.948Z,22.30
2022-09-16T01:13:26.516Z,22.30
2022-09-16T01:16:03.115Z,22.20
2022-09-16T01:18:30.503Z,22.10
2022-09-16T01:21:00.690Z,22.00
2022-09-16T01:23:27.809Z,22.00
2022-09-16T01:26:26.014Z,21.90
2022-09-16T01:28:58.332Z,21.90
2022-09-16T01:31:29.346Z,21.90
2022-09-16T01:33:56.525Z,21.90
2022-09-16T01:36:25.080Z,21.90
2022-09-16T01:39:08.504Z,21.80
2022-09-16T01:42:11.259Z,21.70
2022-09-16T01:44:46.217Z,21.70
2022-09-16T01:47:32.342Z,21.70
2022-09-16T01:50:16.739Z,21.70
2022-09-16T01:53:17.882Z,21.70
2022-09-16T01:55:51.214Z,21.60
2022-09-16T01:58:25.893Z,21.60
2022-09-16T02:00:57.521Z,21.60
2022-09-16T02:03:28.564Z,21.60
2022-09-16T02:06:01.185Z,21.60
2022-09-16T02:08:34.439Z,21.60
2022-09-16T02:11:08.618Z,21.50
2022-09-16T02:13:40.259Z,21.50
2022-09-16T02:16:30.035Z,21.50
2022-09-16T02:19:02.197Z,21.50
2022-09-16T02:21:30.996Z,21.50
2022-09-16T02:23:59.614Z,21.40
2022-09-16T02:26:29.235Z,21.50
2022-09-16T02:28:58.768Z,21.50
2022-09-16T02:31:32.187Z,21.50
2022-09-16T02:37:16.334Z,21.50
2022-09-16T02:39:48.620Z,21.50
2022-09-16T02:42:16.507Z,21.40
2022-09-16T02:44:47.873Z,21.40
2022-09-16T02:47:21.252Z,21.30
2022-09-16T02:49:55.756Z,21.30
2022-09-16T02:52:44.244Z,21.30
2022-09-16T02:55:20.754Z,21.30
2022-09-16T02:57:49.161Z,21.30
2022-09-16T03:00:17.763Z,21.30
2022-09-16T03:02:46.610Z,21.30
2022-09-16T03:05:14.054Z,21.30
2022-09-16T03:07:41.427Z,21.30
2022-09-16T03:10:18.720Z,21.30
2022-09-16T03:13:01.839Z,21.30
2022-09-16T03:15:49.255Z,21.30
2022-09-16T03:18:21.827Z,21.30
2022-09-16T03:21:08.076Z,21.30
2022-09-16T03:23:36.653Z,21.30
2022-09-16T03:26:10.100Z,21.30
2022-09-16T03:29:00.265Z,21.20
2022-09-16T03:31:32.455Z,21.20
2022-09-16T03:34:12.825Z,21.20
2022-09-16T03:36:45.258Z,21.10
2022-09-16T03:39:15.777Z,21.10
2022-09-16T03:41:44.014Z,21.00
2022-09-16T03:44:11.285Z,21.00
2022-09-16T03:46:38.702Z,20.90
2022-09-16T03:49:08.424Z,20.90
2022-09-16T03:51:35.615Z,20.90
2022-09-16T03:54:02.888Z,20.90
2022-09-16T03:56:30.018Z,20.90
2022-09-16T03:58:59.530Z,20.90
2022-09-16T04:01:29.820Z,20.90
2022-09-16T04:03:56.977Z,20.90
2022-09-16T04:06:24.098Z,20.90
2022-09-16T04:08:51.355Z,20.80
2022-09-16T04:11:18.628Z,20.90
2022-09-16T04:13:45.746Z,20.90
2022-09-16T04:16:19.087Z,20.80
2022-09-16T04:18:46.219Z,20.80
2022-09-16T04:21:13.536Z,20.90
2022-09-16T04:23:40.907Z,20.90
2022-09-16T04:26:08.171Z,20.90
2022-09-16T04:28:38.380Z,20.90
2022-09-16T04:31:06.745Z,20.90
2022-09-16T04:33:35.274Z,20.90
2022-09-16T04:36:10.040Z,20.80
2022-09-16T04:38:37.164Z,20.80
2022-09-16T04:41:09.160Z,20.80
2022-09-16T04:43:36.340Z,20.70
2022-09-16T04:46:04.269Z,20.70
2022-09-16T04:48:31.563Z,20.70
2022-09-16T04:51:06.227Z,20.80
2022-09-16T04:53:33.487Z,20.90
2022-09-16T04:56:05.242Z,20.90
2022-09-16T04:58:40.412Z,20.90
2022-09-16T05:01:18.997Z,20.90
2022-09-16T05:03:48.377Z,20.90
2022-09-16T05:06:20.866Z,20.90
2022-09-16T05:08:56.232Z,21.00
2022-09-16T05:11:27.924Z,21.00
2022-09-16T05:14:10.725Z,21.00
2022-09-16T05:16:37.996Z,21.00
2022-09-16T05:19:05.261Z,21.10
2022-09-16T05:21:54.829Z,21.10
2022-09-16T05:24:21.983Z,21.10
2022-09-16T05:26:52.241Z,21.20
2022-09-16T05:35:37.786Z,21.30
2022-09-16T05:38:08.010Z,21.30
2022-09-16T05:40:39.654Z,21.40
2022-09-16T05:43:06.766Z,21.40
2022-09-16T05:45:34.344Z,21.50
2022-09-16T05:48:01.687Z,21.50
2022-09-16T05:50:28.891Z,21.60
2022-09-16T05:52:56.066Z,21.60
2022-09-16T05:55:23.132Z,21.70
2022-09-16T05:57:50.272Z,21.70
2022-09-16T06:00:20.493Z,21.70
2022-09-16T06:02:49.028Z,21.70
2022-09-16T06:05:17.365Z,21.80
2022-09-16T06:07:48.110Z,21.90
2022-09-16T06:10:15.308Z,21.90
2022-09-16T06:12:42.431Z,22.00
2022-09-16T06:15:10.237Z,22.00
2022-09-16T06:17:39.051Z,22.10
2022-09-16T06:20:38.166Z,22.20
2022-09-16T06:23:05.340Z,22.30
2022-09-16T06:25:34.203Z,22.60
2022-09-16T06:31:30.525Z,23.00
2022-09-16T06:33:57.979Z,23.30
2022-09-16T06:36:26.880Z,23.30
2022-09-16T06:38:54.232Z,23.40
2022-09-16T06:41:43.402Z,23.60
2022-09-16T06:54:59.884Z,24.70
2022-09-16T07:03:17.951Z,24.40
2022-09-16T07:06:18.610Z,24.10
2022-09-16T07:08:46.121Z,24.10
2022-09-16T07:11:14.767Z,24.20
2022-09-16T07:23:14.563Z,25.60
2022-09-16T07:25:41.710Z,25.90
2022-09-16T07:28:09.020Z,25.80
2022-09-16T07:48:03.682Z,25.80
2022-09-16T07:50:30.931Z,26.00
2022-09-16T07:59:22.716Z,26.00
2022-09-16T08:04:44.700Z,25.90
2022-09-16T08:10:12.087Z,25.30
2022-09-16T08:12:46.244Z,25.30
2022-09-16T08:15:15.723Z,25.70
2022-09-16T08:20:52.551Z,26.20
2022-09-16T08:26:01.704Z,26.70
2022-09-16T08:28:40.138Z,26.90
2022-09-16T08:37:57.827Z,27.40
2022-09-16T08:44:08.569Z,28.10
2022-09-16T08:46:50.630Z,28.70
2022-09-16T08:58:39.040Z,29.70
2022-09-16T09:01:23.156Z,29.70
2022-09-16T09:03:50.718Z,29.50
2022-09-16T09:06:29.523Z,29.60
2022-09-16T09:09:06.680Z,29.80
2022-09-16T09:11:36.164Z,30.30
2022-09-16T09:14:26.463Z,30.50
2022-09-16T09:17:09.845Z,30.90
2022-09-16T09:19:55.175Z,31.00
2022-09-16T09:22:28.933Z,31.00
2022-09-16T09:25:12.067Z,31.00
2022-09-16T09:28:00.308Z,30.80
2022-09-16T09:30:29.012Z,30.50
2022-09-16T09:33:41.309Z,30.80
2022-09-16T09:36:09.354Z,30.90
2022-09-16T09:38:48.322Z,30.70
2022-09-16T09:41:40.722Z,30.60
2022-09-16T09:44:31.009Z,30.80
2022-09-16T09:47:01.791Z,31.00
2022-09-16T09:49:29.053Z,31.00
2022-09-16T09:52:20.675Z,30.90
2022-09-16T09:55:00.449Z,30.80
2022-09-16T09:58:03.399Z,30.80
2022-09-16T10:03:53.948Z,30.80
2022-09-16T10:06:23.815Z,31.00
2022-09-16T10:08:52.162Z,31.00
2022-09-16T10:11:24.509Z,30.90
2022-09-16T10:13:52.917Z,31.10
2022-09-16T10:16:21.431Z,31.30
2022-09-16T10:22:27.046Z,31.10
2022-09-16T10:25:01.792Z,31.20
2022-09-16T10:27:36.579Z,31.20
2022-09-16T10:30:10.538Z,31.10
2022-09-16T10:32:46.378Z,30.90
2022-09-16T10:35:24.065Z,30.70
2022-09-16T10:37:53.068Z,30.60
2022-09-16T10:40:20.389Z,30.50
2022-09-16T10:42:48.120Z,30.70
2022-09-16T10:45:26.667Z,30.70
2022-09-16T10:47:57.258Z,30.80
2022-09-16T10:50:25.151Z,30.40
2022-09-16T10:52:55.804Z,30.30
2022-09-16T10:55:38.638Z,30.30
2022-09-16T10:58:14.591Z,30.20
2022-09-16T11:00:48.477Z,29.90
2022-09-16T11:03:40.671Z,29.50
2022-09-16T11:06:17.944Z,29.60
2022-09-16T11:08:55.802Z,29.60
2022-09-16T11:15:14.191Z,29.60
2022-09-16T11:17:48.008Z,29.50
2022-09-16T11:20:24.359Z,29.70
2022-09-16T11:23:00.629Z,30.00
2022-09-16T11:25:30.861Z,30.20
2022-09-16T11:28:00.976Z,30.50
2022-09-16T11:30:30.592Z,30.80
2022-09-16T11:33:39.623Z,30.60
2022-09-16T11:36:20.000Z,30.50
2022-09-16T11:39:00.265Z,30.30
2022-09-16T11:42:07.431Z,30.30
2022-09-16T11:47:54.098Z,30.20
2022-09-16T11:50:44.628Z,29.90
2022-09-16T11:53:37.910Z,29.80
2022-09-16T11:56:22.095Z,29.60
2022-09-16T11:58:57.820Z,29.40
2022-09-16T12:01:46.165Z,29.50
2022-09-16T12:04:42.507Z,29.50
2022-09-16T12:08:13.135Z,29.10
2022-09-16T12:10:51.259Z,28.90
2022-09-16T12:13:24.944Z,28.80
2022-09-16T12:16:23.263Z,29.00
2022-09-16T12:18:54.457Z,29.00
2022-09-16T12:21:34.464Z,29.30
2022-09-16T12:24:05.482Z,29.40
2022-09-16T12:26:50.358Z,29.60
2022-09-16T12:29:36.573Z,29.80
2022-09-16T12:32:16.052Z,29.80
2022-09-16T12:35:00.236Z,29.80
2022-09-16T12:37:37.209Z,29.80
2022-09-16T12:40:06.500Z,29.70
2022-09-16T12:42:54.155Z,29.80
2022-09-16T12:45:34.203Z,30.00
2022-09-16T12:48:39.735Z,29.90
2022-09-16T12:51:25.905Z,30.00
2022-09-16T12:53:56.033Z,30.00
2022-09-16T12:56:35.512Z,29.90
2022-09-16T12:59:21.751Z,29.80
2022-09-16T13:01:59.049Z,29.90
2022-09-16T13:04:43.556Z,29.90
2022-09-16T13:07:25.382Z,29.80
2022-09-16T13:10:04.041Z,29.80
2022-09-16T13:12:42.803Z,30.00
2022-09-16T13:15:23.427Z,30.00
2022-09-16T13:17:53.223Z,30.10
2022-09-16T13:20:23.472Z,30.20
2022-09-16T13:23:08.885Z,30.20
2022-09-16T13:25:56.561Z,30.20
2022-09-16T13:28:33.237Z,30.20
2022-09-16T13:31:13.114Z,30.10
2022-09-16T13:33:41.425Z,30.20
2022-09-16T13:36:25.719Z,30.10
2022-09-16T13:38:54.115Z,30.10
2022-09-16T13:42:00.643Z,30.10
2022-09-16T13:44:39.313Z,30.00
2022-09-16T13:47:07.397Z,30.00
2022-09-16T13:49:35.359Z,30.00
2022-09-16T13:52:12.300Z,30.20
2022-09-16T13:55:06.142Z,30.20
2022-09-16T13:57:49.178Z,30.20
2022-09-16T14:00:21.163Z,30.10
2022-09-16T14:03:06.835Z,29.90
2022-09-16T14:05:53.629Z,29.80
2022-09-16T14:08:35.583Z,29.80
2022-09-16T14:11:25.063Z,29.70
2022-09-16T14:14:05.153Z,29.70
2022-09-16T14:16:35.970Z,29.60
2022-09-16T14:19:08.420Z,29.60
2022-09-16T14:21:40.078Z,29.60
2022-09-16T14:24:17.965Z,29.60
2022-09-16T14:26:54.672Z,29.50
2022-09-16T14:29:22.402Z,29.50
2022-09-16T14:31:52.082Z,29.60
2022-09-16T14:34:36.285Z,29.50
2022-09-16T14:37:04.204Z,29.40
2022-09-16T14:39:32.245Z,29.20
2022-09-16T14:42:04.588Z,29.20
2022-09-16T14:44:49.002Z,29.20
2022-09-16T14:47:39.843Z,29.10
2022-09-16T14:50:23.498Z,29.20
2022-09-16T14:53:26.920Z,29.30
2022-09-16T14:56:03.236Z,29.40
2022-09-16T14:58:32.120Z,29.60
2022-09-16T15:01:08.875Z,29.60
2022-09-16T15:03:44.372Z,29.70
2022-09-16T15:06:19.989Z,29.70
2022-09-16T15:08:50.927Z,29.60
2022-09-16T15:11:43.632Z,29.50
2022-09-16T15:14:07.560Z,29.40
2022-09-16T15:17:01.330Z,29.40
2022-09-16T15:19:37.151Z,29.40
2022-09-16T15:22:07.202Z,29.50
2022-09-16T15:24:55.869Z,29.60
2022-09-16T15:27:24.362Z,29.60
2022-09-16T15:29:55.786Z,29.60
2022-09-16T15:32:27.397Z,29.60
2022-09-16T15:35:23.908Z,29.60
2022-09-16T15:40:46.013Z,29.60
2022-09-16T15:43:28.007Z,29.50
2022-09-16T15:46:00.738Z,29.50
2022-09-16T15:48:35.251Z,29.40
2022-09-16T15:51:06.700Z,29.40
2022-09-16T15:53:39.234Z,29.40
2022-09-16T15:56:18.470Z,29.30
2022-09-16T15:58:47.316Z,29.20
2022-09-16T16:01:33.196Z,29.20
2022-09-16T16:04:01.534Z,29.20
2022-09-16T16:06:44.110Z,29.00
2022-09-16T16:09:26.482Z,29.00
2022-09-16T16:11:53.907Z,29.00
2022-09-16T16:14:21.084Z,29.00
2022-09-16T16:17:11.183Z,28.90
2022-09-16T16:19:35.628Z,28.90
2022-09-16T16:22:02.771Z,28.80
2022-09-16T16:24:30.646Z,28.70
2022-09-16T16:26:57.921Z,28.70
2022-09-16T16:29:25.261Z,28.70
2022-09-16T16:32:02.773Z,28.80
2022-09-16T16:34:34.286Z,28.70
2022-09-16T16:37:03.651Z,28.50
2022-09-16T16:39:33.140Z,28.30
2022-09-16T16:42:00.263Z,28.10
2022-09-16T16:44:27.562Z,28.00
2022-09-16T16:46:55.399Z,27.80
2022-09-16T16:49:22.805Z,27.60
2022-09-16T16:51:51.150Z,27.40
2022-09-16T16:54:18.608Z,27.20
2022-09-16T16:56:45.984Z,27.20
2022-09-16T16:59:13.428Z,27.00
2022-09-16T17:01:43.320Z,27.00
2022-09-16T17:04:15.824Z,27.00
2022-09-16T17:06:43.441Z,27.00
2022-09-16T17:09:15.507Z,26.90
2022-09-16T17:11:56.778Z,26.80
2022-09-16T17:14:24.927Z,26.80
2022-09-16T17:16:54.824Z,26.70
2022-09-16T17:19:23.086Z,26.70
2022-09-16T17:21:50.600Z,26.60
2022-09-16T17:24:18.174Z,26.60
2022-09-16T17:26:45.708Z,26.60
2022-09-16T17:29:15.952Z,26.60
2022-09-16T17:31:44.080Z,26.60
2022-09-16T17:34:15.053Z,26.60
2022-09-16T17:36:46.594Z,26.50
2022-09-16T17:39:15.704Z,26.50
2022-09-16T17:41:45.068Z,26.40
2022-09-16T17:44:12.690Z,26.30
2022-09-16T17:46:40.747Z,26.20
2022-09-16T17:49:08.973Z,26.10
2022-09-16T17:51:36.005Z,25.90
2022-09-16T17:54:03.780Z,25.80
2022-09-16T17:56:30.910Z,25.60
2022-09-16T17:58:58.010Z,25.50
2022-09-16T18:01:25.773Z,25.30
2022-09-16T18:03:54.294Z,25.30
2022-09-16T18:06:23.893Z,25.30
2022-09-16T18:08:53.584Z,25.20
2022-09-16T18:11:24.196Z,25.20
2022-09-16T18:13:55.599Z,25.20
2022-09-16T18:16:24.555Z,25.20
2022-09-16T18:18:54.613Z,25.10
2022-09-16T18:21:24.531Z,25.10
2022-09-16T18:23:56.344Z,25.10
2022-09-16T18:26:23.941Z,25.00
2022-09-16T18:29:17.913Z,24.90
2022-09-16T18:31:39.650Z,24.80
2022-09-16T18:34:06.716Z,24.70
2022-09-16T18:36:35.154Z,24.70
2022-09-16T18:39:02.239Z,24.60
2022-09-16T18:41:30.948Z,24.60
2022-09-16T18:44:31.520Z,24.60
2022-09-16T18:46:54.832Z,24.60
2022-09-16T18:49:24.283Z,24.70
2022-09-16T18:51:54.906Z,24.60
2022-09-16T18:54:28.484Z,24.60
2022-09-16T18:57:00.103Z,24.60
2022-09-16T18:59:32.068Z,24.60
2022-09-16T19:02:00.478Z,24.60
2022-09-16T19:04:34.366Z,24.60
2022-09-16T19:07:34.429Z,24.50
2022-09-16T19:10:02.984Z,24.40
2022-09-16T19:12:39.225Z,24.30
2022-09-16T19:15:10.174Z,24.20
2022-09-16T19:17:37.273Z,24.10
2022-09-16T19:20:05.719Z,24.00
2022-09-16T19:22:33.023Z,24.00
2022-09-16T19:25:01.490Z,24.00
2022-09-16T19:27:30.984Z,23.90
2022-09-16T19:30:04.290Z,23.90
2022-09-16T19:32:35.342Z,23.90
2022-09-16T19:35:02.766Z,23.90
2022-09-16T19:37:29.885Z,23.80
2022-09-16T19:39:57.311Z,23.80
2022-09-16T19:42:27.763Z,23.80
2022-09-16T19:44:54.837Z,23.80
2022-09-16T19:47:22.273Z,23.70
2022-09-16T19:49:49.438Z,23.70
2022-09-16T19:52:16.801Z,23.60
2022-09-16T19:54:43.949Z,23.60
2022-09-16T19:57:11.416Z,23.60
2022-09-16T19:59:42.926Z,23.60
2022-09-16T20:02:11.082Z,23.50
2022-09-16T20:04:38.362Z,23.50
2022-09-16T20:07:05.826Z,23.40
2022-09-16T20:09:32.976Z,23.50
2022-09-16T20:12:00.048Z,23.40
2022-09-16T20:14:33.899Z,23.50
2022-09-16T20:17:01.227Z,23.50
2022-09-16T20:19:28.589Z,23.50
2022-09-16T20:21:55.909Z,23.40
2022-09-16T20:24:25.596Z,23.40
2022-09-16T20:26:53.680Z,23.30
2022-09-16T20:29:23.365Z,23.30
2022-09-16T20:31:54.147Z,23.20
2022-09-16T20:34:24.031Z,23.20
2022-09-16T20:36:54.551Z,23.10
2022-09-16T20:39:22.067Z,23.10
2022-09-16T20:41:49.800Z,23.00
2022-09-16T20:44:19.575Z,22.90
2022-09-16T20:46:48.233Z,22.80
2022-09-16T20:49:16.746Z,22.80
2022-09-16T20:51:43.946Z,22.80
2022-09-16T20:54:12.112Z,22.70
2022-09-16T20:56:40.600Z,22.70
2022-09-16T20:59:09.074Z,22.60
2022-09-16T21:01:37.280Z,22.50
2022-09-16T21:04:06.033Z,22.40
2022-09-16T21:06:37.034Z,22.40
2022-09-16T21:09:10.221Z,22.40
2022-09-16T21:11:39.977Z,22.30
2022-09-16T21:14:07.578Z,22.30
2022-09-16T21:16:36.078Z,22.20
2022-09-16T21:19:04.195Z,22.20
2022-09-16T21:21:31.945Z,22.10
2022-09-16T21:24:00.421Z,22.20
2022-09-16T21:26:34.638Z,22.20
2022-09-16T21:29:02.822Z,22.20
2022-09-16T21:31:33.424Z,22.20
2022-09-16T21:34:02.914Z,22.10
2022-09-16T21:36:30.555Z,22.00
2022-09-16T21:39:00.866Z,21.90
2022-09-16T21:41:28.434Z,21.90
2022-09-16T21:43:56.464Z,21.90
2022-09-16T21:46:23.555Z,21.80
2022-09-16T21:48:51.630Z,21.80
2022-09-16T21:51:19.387Z,21.70
2022-09-16T21:53:47.182Z,21.60
2022-09-16T21:56:17.000Z,21.50
2022-09-16T21:58:44.701Z,21.50
2022-09-16T22:01:13.284Z,21.30
2022-09-16T22:03:41.494Z,21.20
2022-09-16T22:06:09.600Z,21.20
2022-09-16T22:08:40.833Z,21.10
2022-09-16T22:11:11.788Z,21.10
2022-09-16T22:13:38.931Z,21.00
2022-09-16T22:16:08.725Z,20.90
2022-09-16T22:18:37.405Z,20.90
2022-09-16T22:21:05.827Z,20.90
2022-09-16T22:23:37.345Z,20.80
2022-09-16T22:26:09.064Z,20.80
2022-09-16T22:28:36.209Z,20.80
2022-09-16T22:31:36.216Z,20.80
2022-09-16T22:34:03.470Z,20.80
2022-09-16T22:36:32.274Z,20.80
2022-09-16T22:39:01.197Z,20.80
2022-09-16T22:41:28.955Z,20.80
2022-09-16T22:43:56.293Z,20.80
2022-09-16T22:49:06.591Z,20.80
2022-09-16T22:51:33.812Z,20.80
2022-09-16T22:54:00.884Z,20.80
2022-09-16T22:56:31.791Z,20.60
2022-09-16T22:59:01.715Z,20.60
2022-09-16T23:01:34.828Z,20.60
2022-09-16T23:04:03.097Z,20.60
2022-09-16T23:06:31.453Z,20.60
2022-09-16T23:08:59.664Z,20.60
2022-09-16T23:11:28.626Z,20.60
2022-09-16T23:13:56.382Z,20.50
2022-09-16T23:16:26.862Z,20.40
2022-09-16T23:18:55.232Z,20.40
2022-09-16T23:21:31.455Z,20.40
2022-09-16T23:23:59.819Z,20.30
2022-09-16T23:26:28.346Z,20.30
2022-09-16T23:28:56.765Z,20.20
2022-09-16T23:31:25.530Z,20.20
2022-09-16T23:33:52.979Z,20.10
2022-09-16T23:36:21.066Z,20.10
2022-09-16T23:38:48.175Z,20.00
2022-09-16T23:41:16.696Z,19.90
2022-09-16T23:43:49.557Z,19.90
2022-09-16T23:46:17.894Z,19.80
2022-09-16T23:48:45.265Z,19.70
2022-09-16T23:51:15.353Z,19.60
2022-09-16T23:53:53.828Z,19.60
2022-09-16T23:56:22.075Z,19.60
2022-09-16T23:58:50.412Z,19.50
